Hyannis, MA (02601)

1:04 AM EDT on September 04, 2015 (GMT -0400)
Cape Air EDC Building | | Change Station
CLOSE
Current Station
Personal Weather Station
Location: Hyannis, MA
Elevation: 49 ft
Nearby Weather Stations

Elev 49 ft 41.67 °N, 70.29 °W | Updated 6 seconds ago

Clear
Clear
71.4 °F
Feels Like 71.4 °F
N
2.7
Wind Variable Wind from NNW
Gusts 3.6 mph

Today
High -- | Low -- °F
--% Chance of Precip.
Yesterday
High -- | Low -- °F
Precip. -- in
6:09 AM 7:09 PM
Waning Gibbous, 63% visible
Pressure 29.92 in
Visibility 5.0 miles
Clouds Clear
Dew Point 70 °F
Humidity 96%
Rainfall 0.00 in
Snow Depth Not available.
UV 0 out of 12
Pollen 7.90 out of 12
Air Quality Not available.
Flu Activity Not available.
METAR KHYA 040456Z AUTO 00000KT 5SM BR CLR 21/20 A2991 RMK AO2 SLP130 T02110200 402940206
Pressure 29.92 in
Visibility 5.0 miles
Clouds Clear
Dew Point 70 °F
Humidity 96%
Rainfall 0.00 in
Snow Depth Not available.
UV 0 out of 12
Pollen 7.90 out of 12
Air Quality Not available.
Flu Activity Not available.
METAR KHYA 040456Z AUTO 00000KT 5SM BR CLR 21/20 A2991 RMK AO2 SLP130 T02110200 402940206

10-Day Weather Forecast

×

Almanac

Astronomy

Sep. 04, 2015 Rise Set
Actual Time
Civil Twilight
Nautical Twilight
Astronomical Twilight
Moon
Length of Visible Light
Length of Day
Tomorrow will be .
, % of the Moon is Illuminated

Today's Extremes

State Highs State Lows

Community

WunderPhotos

Upload Photos

1,852,129 photos uploaded!

WunderBlogs® & News

Nearby

Air Quality

  Air Quality AQ Index Pollutant
Not available.

Snow Depth

Station Depth Elevation

Earthquake Activity

City Distance Mag. Time & Date
Minimum magnitude displayed is 2.5.

Coastal Water Temperatures

Place Temperature

Stations

Nearby Weather Stations

Station Location Temp. Windchill Dew Point Humidity Wind Precip. Elev Updated Type